createdAt,value
2023-05-21T00:05:24.059Z,14.06
2023-05-21T00:15:28.376Z,13.98
2023-05-21T00:25:31.578Z,13.89
2023-05-21T00:35:36.124Z,13.83
2023-05-21T00:45:39.824Z,13.72
2023-05-21T00:55:44.447Z,13.66
2023-05-21T01:05:48.965Z,13.61
2023-05-21T01:15:54.768Z,13.50
2023-05-21T01:26:00.295Z,13.43
2023-05-21T01:36:09.870Z,13.34
2023-05-21T01:46:18.277Z,13.31
2023-05-21T01:56:23.156Z,13.30
2023-05-21T02:06:27.638Z,13.38
2023-05-21T02:16:30.793Z,13.53
2023-05-21T02:26:35.613Z,13.66
2023-05-21T02:36:38.683Z,13.61
2023-05-21T02:46:43.049Z,13.78
2023-05-21T02:56:46.325Z,13.85
2023-05-21T03:06:51.865Z,13.89
2023-05-21T03:16:55.033Z,13.80
2023-05-21T03:27:01.100Z,13.71
2023-05-21T03:37:04.315Z,13.55
2023-05-21T03:47:10.277Z,13.63
2023-05-21T03:57:13.874Z,13.70
2023-05-21T04:07:19.216Z,13.67
2023-05-21T04:17:22.419Z,13.69
2023-05-21T04:27:27.924Z,13.62
2023-05-21T04:37:31.538Z,13.68
2023-05-21T04:47:36.110Z,13.75
2023-05-21T04:57:40.123Z,13.93
2023-05-21T05:07:45.798Z,14.06
2023-05-21T05:17:50.538Z,14.10
2023-05-21T05:27:55.185Z,14.21
2023-05-21T05:37:58.285Z,14.40
2023-05-21T05:48:02.960Z,14.51
2023-05-21T05:58:06.755Z,14.80
2023-05-21T06:08:23.380Z,15.04
2023-05-21T06:18:26.398Z,15.14
2023-05-21T06:28:31.268Z,15.57
2023-05-21T06:38:35.447Z,15.94
2023-05-21T06:48:39.885Z,16.17
2023-05-21T06:58:42.767Z,16.42
2023-05-21T07:08:49.592Z,16.89
2023-05-21T07:18:52.997Z,17.17
2023-05-21T07:28:57.548Z,17.64
2023-05-21T07:39:01.036Z,17.75
2023-05-21T07:49:06.149Z,18.18
2023-05-21T07:59:09.253Z,18.38
2023-05-21T08:09:14.559Z,18.81
2023-05-21T08:19:17.810Z,18.49
2023-05-21T08:29:22.292Z,18.82
2023-05-21T08:39:25.528Z,19.12
2023-05-21T08:49:35.728Z,19.15
2023-05-21T08:59:43.302Z,19.81
2023-05-21T09:09:58.163Z,19.96
2023-05-21T09:20:13.596Z,20.21
2023-05-21T09:30:26.022Z,20.29
2023-05-21T09:40:46.276Z,20.07
2023-05-21T09:50:50.891Z,20.41
2023-05-21T10:00:54.235Z,20.43
2023-05-21T10:10:58.577Z,20.93
2023-05-21T10:21:02.336Z,21.00
2023-05-21T10:31:07.839Z,21.26
2023-05-21T10:41:12.587Z,21.80
2023-05-21T10:51:25.035Z,21.64
2023-05-21T11:01:30.242Z,22.17
2023-05-21T11:11:46.195Z,22.56
2023-05-21T11:21:52.289Z,22.94
2023-05-21T11:32:02.966Z,23.01
2023-05-21T11:42:06.416Z,23.36
2023-05-21T11:52:12.058Z,23.94
2023-05-21T12:02:18.879Z,23.80
2023-05-21T12:12:25.694Z,24.48
2023-05-21T12:22:29.910Z,24.08
2023-05-21T12:32:34.421Z,24.08
2023-05-21T12:42:40.123Z,24.00
2023-05-21T12:52:45.583Z,24.04
2023-05-21T13:02:48.962Z,24.28
2023-05-21T13:12:53.378Z,24.59
2023-05-21T13:22:56.652Z,24.71
2023-05-21T13:33:00.971Z,25.02
2023-05-21T13:43:04.249Z,25.01
2023-05-21T13:53:08.976Z,25.86
2023-05-21T14:03:12.291Z,26.86
2023-05-21T14:13:20.035Z,27.33
2023-05-21T14:23:23.362Z,27.09
2023-05-21T14:33:27.727Z,27.39
2023-05-21T14:43:30.760Z,26.28
2023-05-21T14:53:35.134Z,27.61
2023-05-21T15:03:38.175Z,26.93
2023-05-21T15:13:42.652Z,26.85
2023-05-21T15:23:47.406Z,26.46
2023-05-21T15:33:51.836Z,25.82
2023-05-21T15:43:55.033Z,25.83
2023-05-21T15:53:59.697Z,25.90
2023-05-21T16:04:03.225Z,25.57
2023-05-21T16:14:07.793Z,24.91
2023-05-21T16:24:10.774Z,24.93
2023-05-21T16:34:15.405Z,24.67
2023-05-21T16:44:20.219Z,24.84
2023-05-21T16:54:24.791Z,24.73
2023-05-21T17:04:27.818Z,24.34
2023-05-21T17:14:34.331Z,24.48
2023-05-21T17:24:37.946Z,24.34
2023-05-21T17:34:42.317Z,24.44
2023-05-21T17:44:45.252Z,24.11
2023-05-21T17:54:49.598Z,24.21
2023-05-21T18:04:52.656Z,24.10
2023-05-21T18:14:57.145Z,24.09
2023-05-21T18:25:00.445Z,23.49
2023-05-21T18:35:05.260Z,23.03
2023-05-21T18:45:10.294Z,22.58
2023-05-21T18:55:15.450Z,22.22
2023-05-21T19:05:18.496Z,21.87
2023-05-21T19:15:22.975Z,21.47
2023-05-21T19:25:26.450Z,21.37
2023-05-21T19:35:31.342Z,20.96
2023-05-21T19:45:34.551Z,20.68
2023-05-21T19:55:38.972Z,20.31
2023-05-21T20:05:41.936Z,20.14
2023-05-21T20:15:48.013Z,19.79
2023-05-21T20:25:51.190Z,19.46
2023-05-21T20:35:55.564Z,19.10
2023-05-21T20:46:00.800Z,18.69
2023-05-21T20:56:08.372Z,18.48
2023-05-21T21:06:12.286Z,18.20
2023-05-21T21:16:16.726Z,18.01
2023-05-21T21:26:19.842Z,17.77
2023-05-21T21:36:24.234Z,17.61
2023-05-21T21:46:27.179Z,17.50
2023-05-21T21:56:32.048Z,17.40
2023-05-21T22:06:35.042Z,17.25
2023-05-21T22:16:41.566Z,17.19
2023-05-21T22:26:44.844Z,17.04
2023-05-21T22:36:49.227Z,16.96
2023-05-21T22:46:52.282Z,16.89
2023-05-21T22:56:56.731Z,16.79
2023-05-21T23:06:59.903Z,16.69
2023-05-21T23:17:04.540Z,16.66
2023-05-21T23:27:07.944Z,16.55
2023-05-21T23:37:12.295Z,16.40
2023-05-21T23:47:15.295Z,16.26
2023-05-21T23:57:19.576Z,16.12
